Time;durP1;ratioP1;P1;durP2;ratioP2;P2;SDS_P1;SDS_P2;PMS_P1;PMS_P2;Temp;Humidity;BMP_temperature;BMP_pressure;BME280_temperature;BME280_humidity;BME280_pressure;Samples;Min_cycle;Max_cycle;Signal;HPM_P1;HPM_P2
2023/09/14 00:02:15;;;;;;;4.37;2.17;;;20.30;87.80;;;;;;10501472;28;20410;-65
2023/09/14 00:07:16;;;;;;;3.90;2.27;;;20.20;87.70;;;;;;10504828;28;20532;-64
2023/09/14 00:12:16;;;;;;;3.90;2.13;;;20.20;87.60;;;;;;10495467;28;20406;-65
2023/09/14 00:17:17;;;;;;;3.80;2.17;;;20.20;87.60;;;;;;10499553;28;20908;-66
2023/09/14 00:22:17;;;;;;;3.97;1.90;;;20.20;87.60;;;;;;10502950;28;20450;-66
2023/09/14 00:27:18;;;;;;;3.27;1.90;;;20.20;87.50;;;;;;10499397;28;20769;-66
2023/09/14 00:32:19;;;;;;;3.37;2.07;;;20.10;87.30;;;;;;10503347;28;20401;-66
2023/09/14 00:37:19;;;;;;;2.90;1.70;;;20.10;87.30;;;;;;10493662;28;20432;-66
2023/09/14 00:42:20;;;;;;;3.67;1.90;;;20.10;87.30;;;;;;10493018;28;20409;-66
2023/09/14 00:47:21;;;;;;;4.30;1.90;;;20.10;87.10;;;;;;10498030;28;20407;-66
2023/09/14 00:52:21;;;;;;;3.93;1.90;;;20.00;87.10;;;;;;10502846;28;20829;-67
2023/09/14 00:57:22;;;;;;;3.45;1.73;;;20.00;87.10;;;;;;10505286;28;20760;-66
2023/09/14 01:02:25;;;;;;;3.20;1.70;;;20.00;87.00;;;;;;10508414;28;21141;-66
2023/09/14 01:07:26;;;;;;;3.30;1.60;;;20.00;86.90;;;;;;10510374;28;20398;-66
2023/09/14 01:12:27;;;;;;;3.93;1.60;;;19.90;86.90;;;;;;10496306;28;20901;-66
2023/09/14 01:18:15;;;;;;;2.25;1.25;;;19.90;86.80;;;;;;10486906;28;20406;-66
2023/09/14 01:23:35;;;;;;;3.50;1.83;;;19.90;86.80;;;;;;10490532;28;20492;-66
2023/09/14 01:28:36;;;;;;;2.50;1.70;;;19.90;86.70;;;;;;10501820;28;20391;-66
2023/09/14 01:33:37;;;;;;;2.90;1.43;;;19.90;86.70;;;;;;10505240;28;20694;-65
2023/09/14 01:38:39;;;;;;;2.95;1.40;;;19.80;86.60;;;;;;10514359;28;20809;-65
2023/09/14 01:43:41;;;;;;;2.25;1.40;;;19.80;86.50;;;;;;10507137;28;20855;-66
2023/09/14 01:48:45;;;;;;;2.45;1.40;;;19.80;86.50;;;;;;10503006;28;20665;-66
2023/09/14 01:53:45;;;;;;;2.33;1.55;;;19.80;86.40;;;;;;10501250;28;20792;-66
2023/09/14 01:58:46;;;;;;;2.58;1.50;;;19.70;86.30;;;;;;10511086;28;20420;-66
2023/09/14 02:03:46;;;;;;;1.77;1.20;;;19.70;86.20;;;;;;10513051;28;20894;-66
2023/09/14 02:08:47;;;;;;;2.20;1.20;;;19.70;86.10;;;;;;10507693;28;20405;-66
2023/09/14 02:13:48;;;;;;;2.23;1.30;;;19.70;86.00;;;;;;10486211;28;20409;-66
2023/09/14 02:18:48;;;;;;;2.10;1.40;;;19.60;85.90;;;;;;10492668;28;20397;-66
2023/09/14 02:23:49;;;;;;;3.00;1.40;;;19.60;85.90;;;;;;10496766;28;20398;-64
2023/09/14 02:28:50;;;;;;;2.27;1.10;;;19.60;85.70;;;;;;10503337;28;20412;-66
2023/09/14 02:33:51;;;;;;;3.25;1.30;;;19.50;85.70;;;;;;10507007;28;20406;-66
2023/09/14 02:38:51;;;;;;;2.75;1.33;;;19.60;85.70;;;;;;10505865;28;20414;-66
2023/09/14 02:43:52;;;;;;;1.92;1.25;;;19.50;85.70;;;;;;10504201;28;20401;-66
2023/09/14 02:48:52;;;;;;;3.72;1.20;;;19.50;85.70;;;;;;10507062;28;20617;-64
2023/09/14 02:53:53;;;;;;;2.05;1.20;;;19.50;85.70;;;;;;10496687;28;20829;-66
2023/09/14 02:58:54;;;;;;;2.38;1.40;;;19.40;85.50;;;;;;10508932;28;20416;-66
2023/09/14 03:03:54;;;;;;;1.58;1.10;;;19.40;85.50;;;;;;10503826;28;20397;-66
2023/09/14 03:08:55;;;;;;;2.57;1.30;;;19.40;85.50;;;;;;10495483;28;20407;-67
2023/09/14 03:13:55;;;;;;;2.40;1.20;;;19.40;85.40;;;;;;10498015;28;20488;-65
2023/09/14 03:18:56;;;;;;;1.40;1.10;;;19.30;85.40;;;;;;10502564;28;20407;-66
2023/09/14 03:23:57;;;;;;;2.43;1.30;;;19.30;85.30;;;;;;10496386;28;20386;-65
2023/09/14 03:28:57;;;;;;;1.40;0.90;;;19.30;85.30;;;;;;10500196;28;20429;-66
2023/09/14 03:33:58;;;;;;;1.70;1.20;;;19.30;85.20;;;;;;10506969;28;20402;-66
2023/09/14 03:38:59;;;;;;;1.90;1.10;;;19.30;85.10;;;;;;10504318;28;20398;-66
2023/09/14 03:44:00;;;;;;;1.98;1.10;;;19.20;85.00;;;;;;10508822;28;20755;-65
2023/09/14 03:49:02;;;;;;;1.83;0.97;;;19.20;85.00;;;;;;10507132;28;20397;-67
2023/09/14 03:54:03;;;;;;;1.98;1.25;;;19.20;84.90;;;;;;10502929;28;20398;-67
2023/09/14 03:59:05;;;;;;;2.33;1.10;;;19.20;84.90;;;;;;10511616;28;20410;-66
2023/09/14 04:04:05;;;;;;;1.80;1.10;;;19.20;84.90;;;;;;10502706;28;20804;-66
2023/09/14 04:09:06;;;;;;;1.83;1.10;;;19.10;84.80;;;;;;10502694;28;20404;-64
2023/09/14 04:14:07;;;;;;;1.48;1.10;;;19.10;84.80;;;;;;10499474;28;20945;-66
2023/09/14 04:19:08;;;;;;;2.13;1.07;;;19.10;84.80;;;;;;10502455;28;20418;-66
2023/09/14 04:24:11;;;;;;;1.20;1.00;;;19.00;84.70;;;;;;10499371;28;20565;-66
2023/09/14 04:29:12;;;;;;;1.95;1.23;;;19.00;84.70;;;;;;10498423;28;20774;-65
2023/09/14 04:34:13;;;;;;;2.28;1.08;;;19.00;84.60;;;;;;10506997;28;20913;-66
2023/09/14 04:39:14;;;;;;;2.72;1.23;;;19.00;84.60;;;;;;10503731;28;20415;-66
2023/09/14 04:44:15;;;;;;;1.40;1.00;;;19.00;84.50;;;;;;10503450;28;20470;-65
2023/09/14 04:49:15;;;;;;;1.70;0.90;;;18.90;84.40;;;;;;10501157;28;20797;-66
2023/09/14 04:54:16;;;;;;;2.67;1.10;;;18.90;84.40;;;;;;10501274;28;20407;-66
2023/09/14 04:59:17;;;;;;;1.73;1.17;;;18.90;84.20;;;;;;10500607;28;20438;-66
2023/09/14 05:04:17;;;;;;;1.20;1.00;;;18.80;84.20;;;;;;10504336;28;20413;-66
2023/09/14 05:09:18;;;;;;;1.75;1.10;;;18.80;84.10;;;;;;10503529;28;20916;-64
2023/09/14 05:14:18;;;;;;;1.63;1.30;;;18.80;84.00;;;;;;10494596;28;20547;-64
2023/09/14 05:19:19;;;;;;;1.27;1.07;;;18.80;84.10;;;;;;10500039;28;20447;-64
2023/09/14 05:24:20;;;;;;;2.30;1.20;;;18.80;84.10;;;;;;10503785;28;20804;-64
2023/09/14 05:29:20;;;;;;;1.60;1.20;;;18.80;84.10;;;;;;10497723;28;20402;-65
2023/09/14 05:34:21;;;;;;;3.53;1.17;;;18.80;84.10;;;;;;10503017;28;20413;-65
2023/09/14 05:39:21;;;;;;;2.20;1.20;;;18.70;84.20;;;;;;10504601;28;20404;-66
2023/09/14 05:44:22;;;;;;;1.97;0.97;;;18.80;84.20;;;;;;10505208;28;20392;-66
2023/09/14 05:49:23;;;;;;;2.07;1.10;;;18.70;84.20;;;;;;10501254;28;20394;-66
2023/09/14 05:54:24;;;;;;;1.75;1.08;;;18.70;84.20;;;;;;10508037;28;20401;-66
2023/09/14 05:59:24;;;;;;;2.30;1.20;;;18.70;84.20;;;;;;10509613;28;21171;-65
2023/09/14 06:04:25;;;;;;;2.13;1.20;;;18.70;84.20;;;;;;10477918;28;20443;-66
2023/09/14 06:09:27;;;;;;;1.53;1.20;;;18.70;84.30;;;;;;10486680;28;20410;-65
2023/09/14 06:14:27;;;;;;;2.40;1.50;;;18.70;84.40;;;;;;10492554;28;20394;-66
2023/09/14 06:19:28;;;;;;;2.80;1.40;;;18.60;84.40;;;;;;10494190;28;20416;-65
2023/09/14 06:24:29;;;;;;;1.55;1.00;;;18.60;84.50;;;;;;10490493;28;20471;-66
2023/09/14 06:29:29;;;;;;;2.53;1.20;;;18.60;84.60;;;;;;10498614;28;20413;-67
2023/09/14 06:34:30;;;;;;;2.40;1.40;;;18.60;84.70;;;;;;10490100;28;20410;-66
2023/09/14 06:39:31;;;;;;;3.27;1.50;;;18.60;84.80;;;;;;10489694;28;20476;-66
2023/09/14 06:44:31;;;;;;;2.43;1.30;;;18.60;85.00;;;;;;10490048;28;20407;-65
2023/09/14 06:49:32;;;;;;;2.10;1.30;;;18.60;85.10;;;;;;10477475;28;20475;-66
2023/09/14 06:54:32;;;;;;;2.10;1.30;;;18.70;85.20;;;;;;10487819;28;20845;-65
2023/09/14 06:59:34;;;;;;;2.83;1.33;;;18.70;85.30;;;;;;10485444;28;20515;-65
2023/09/14 07:04:34;;;;;;;3.50;1.50;;;18.70;85.40;;;;;;10490025;28;20812;-65
2023/09/14 07:09:35;;;;;;;2.40;1.58;;;18.70;85.50;;;;;;10491250;28;20454;-69
2023/09/14 07:14:36;;;;;;;2.72;1.63;;;18.70;85.50;;;;;;10501325;28;20617;-64
2023/09/14 07:19:37;;;;;;;2.97;1.37;;;18.80;85.60;;;;;;10491032;28;20572;-66
2023/09/14 07:24:37;;;;;;;4.33;1.50;;;18.70;85.50;;;;;;10493345;28;20402;-66
2023/09/14 07:29:38;;;;;;;3.15;1.60;;;18.80;85.70;;;;;;10491144;28;20419;-67
2023/09/14 07:34:39;;;;;;;2.60;1.58;;;18.80;85.70;;;;;;10501876;28;20415;-66
2023/09/14 07:39:39;;;;;;;3.13;1.58;;;18.80;85.90;;;;;;10496312;28;20434;-65
2023/09/14 07:44:40;;;;;;;4.32;1.60;;;18.90;86.10;;;;;;10498288;28;20459;-66
2023/09/14 07:49:44;;;;;;;3.30;1.50;;;18.90;86.20;;;;;;10487131;28;20403;-66
2023/09/14 07:54:45;;;;;;;2.72;1.50;;;18.90;86.20;;;;;;10488553;28;20477;-68
2023/09/14 07:59:46;;;;;;;2.90;1.40;;;19.00;86.10;;;;;;10487745;28;20865;-67
2023/09/14 08:04:46;;;;;;;7.17;1.70;;;19.10;86.10;;;;;;10491982;28;20917;-66
2023/09/14 08:09:47;;;;;;;3.30;1.90;;;19.10;86.90;;;;;;10486823;28;20800;-68
2023/09/14 08:14:48;;;;;;;2.87;1.40;;;19.20;86.30;;;;;;10491312;28;20398;-69
2023/09/14 08:19:48;;;;;;;3.03;1.70;;;19.20;86.20;;;;;;10494204;28;20569;-69
2023/09/14 08:24:50;;;;;;;4.07;1.57;;;19.20;86.00;;;;;;10487253;28;20518;-67
2023/09/14 08:29:50;;;;;;;2.83;1.47;;;19.20;86.00;;;;;;10492371;28;20398;-68
2023/09/14 08:34:56;;;;;;;3.07;1.50;;;19.20;85.80;;;;;;10491720;28;20409;-69
2023/09/14 08:39:58;;;;;;;3.50;1.63;;;19.20;85.70;;;;;;10491290;28;21045;-69
2023/09/14 08:44:59;;;;;;;3.33;1.60;;;19.20;85.70;;;;;;10494170;28;20434;-69
2023/09/14 08:50:01;;;;;;;3.43;1.67;;;19.30;85.60;;;;;;10493028;28;20400;-68
2023/09/14 08:55:03;;;;;;;3.00;1.50;;;19.30;85.40;;;;;;10487392;28;20489;-69
2023/09/14 09:00:08;;;;;;;4.60;1.90;;;19.30;85.20;;;;;;10489271;28;20557;-69
2023/09/14 09:05:11;;;;;;;4.07;1.70;;;19.30;85.00;;;;;;10497262;28;21746;-69
2023/09/14 09:10:22;;;;;;;3.27;1.70;;;19.40;85.10;;;;;;10483919;28;20395;-69
2023/09/14 09:15:24;;;;;;;3.95;1.80;;;19.40;84.80;;;;;;10488755;28;20407;-68
2023/09/14 09:20:25;;;;;;;2.83;1.58;;;19.40;84.70;;;;;;10488970;28;20414;-68
2023/09/14 09:25:29;;;;;;;3.60;1.92;;;19.40;84.70;;;;;;10488024;28;20921;-68
2023/09/14 09:30:31;;;;;;;5.63;1.97;;;19.40;84.60;;;;;;10483271;28;21251;-67
2023/09/14 09:35:34;;;;;;;5.63;1.80;;;19.50;84.70;;;;;;10485581;28;20412;-66
2023/09/14 09:40:39;;;;;;;4.40;1.60;;;19.50;84.60;;;;;;10489006;28;20407;-66
2023/09/14 09:45:41;;;;;;;5.60;1.90;;;19.60;84.50;;;;;;10481985;28;20423;-65
2023/09/14 09:50:41;;;;;;;3.97;1.80;;;19.60;84.40;;;;;;10497942;28;20492;-66
2023/09/14 09:55:44;;;;;;;3.63;1.58;;;19.70;84.40;;;;;;10490538;28;20730;-68
2023/09/14 10:00:45;;;;;;;5.68;2.03;;;19.70;84.30;;;;;;10494731;28;20463;-69
2023/09/14 10:05:46;;;;;;;5.15;1.80;;;19.70;83.70;;;;;;10488296;28;20686;-69
2023/09/14 10:10:51;;;;;;;7.97;1.80;;;19.60;83.00;;;;;;10483893;28;20409;-68
2023/09/14 10:15:54;;;;;;;4.97;1.70;;;19.70;83.10;;;;;;10490480;28;20432;-66
2023/09/14 10:20:56;;;;;;;4.97;1.67;;;19.70;83.10;;;;;;10490700;28;20405;-71
2023/09/14 10:25:57;;;;;;;4.30;1.60;;;19.80;83.10;;;;;;10492904;28;20409;-66
2023/09/14 10:30:59;;;;;;;4.47;1.60;;;19.90;83.30;;;;;;10500192;28;20893;-70
2023/09/14 10:36:03;;;;;;;3.60;1.55;;;20.00;83.20;;;;;;10488979;28;20969;-66
2023/09/14 10:41:04;;;;;;;5.25;1.55;;;20.10;83.10;;;;;;10493251;28;20406;-65
2023/09/14 10:46:07;;;;;;;4.68;1.52;;;20.10;83.10;;;;;;10505033;28;20405;-65
2023/09/14 10:51:14;;;;;;;4.10;1.50;;;20.20;83.10;;;;;;10512601;28;20413;-66
2023/09/14 10:56:30;;;;;;;3.95;1.70;;;20.20;83.10;;;;;;10498385;28;20829;-66
2023/09/14 11:01:31;;;;;;;4.78;2.00;;;20.30;83.20;;;;;;10490432;28;20457;-67
2023/09/14 11:06:42;;;;;;;4.55;1.90;;;20.30;83.30;;;;;;10503257;28;20476;-66
2023/09/14 11:11:44;;;;;;;4.32;1.80;;;20.30;83.20;;;;;;10496847;28;20414;-66
2023/09/14 11:16:53;;;;;;;4.22;1.70;;;20.30;83.20;;;;;;10504304;28;20408;-66
2023/09/14 11:21:54;;;;;;;4.68;1.90;;;20.40;83.10;;;;;;10497490;28;20397;-66
2023/09/14 11:26:54;;;;;;;4.17;1.70;;;20.50;83.20;;;;;;10498320;28;20410;-65
2023/09/14 11:31:57;;;;;;;4.57;1.93;;;20.40;83.10;;;;;;10508683;28;20402;-71
2023/09/14 11:36:59;;;;;;;5.10;1.80;;;20.40;83.10;;;;;;10505970;28;20410;-67
2023/09/14 11:42:01;;;;;;;5.43;1.80;;;20.50;82.90;;;;;;10500845;28;20462;-68
2023/09/14 11:47:02;;;;;;;6.90;1.88;;;20.50;81.40;;;;;;10501466;28;20475;-70
2023/09/14 11:52:03;;;;;;;4.65;1.70;;;20.60;81.50;;;;;;10501602;28;20420;-68
2023/09/14 11:57:05;;;;;;;3.42;1.90;;;20.60;81.50;;;;;;10499519;28;20409;-68
2023/09/14 12:02:06;;;;;;;5.25;1.92;;;20.60;81.60;;;;;;10498361;28;20401;-69
2023/09/14 12:07:09;;;;;;;5.67;2.00;;;20.70;81.70;;;;;;10494357;28;20783;-69
2023/09/14 12:12:24;;;;;;;3.90;1.80;;;20.70;82.00;;;;;;10498153;28;20429;-67
2023/09/14 12:17:27;;;;;;;4.20;1.67;;;20.70;81.90;;;;;;10499396;28;20422;-67
2023/09/14 12:22:32;;;;;;;2.78;1.63;;;20.80;81.70;;;;;;10491716;28;20394;-68
2023/09/14 12:27:34;;;;;;;4.40;1.88;;;20.90;81.40;;;;;;10500067;28;20921;-68
2023/09/14 12:32:38;;;;;;;5.25;1.80;;;20.90;80.90;;;;;;10498436;28;20400;-69
2023/09/14 12:37:39;;;;;;;5.22;1.98;;;20.90;80.40;;;;;;10491928;28;20409;-68
2023/09/14 12:42:42;;;;;;;3.63;1.70;;;20.90;80.10;;;;;;10490206;28;20399;-68
2023/09/14 12:47:45;;;;;;;4.80;1.80;;;20.90;81.00;;;;;;10495659;28;20780;-68
2023/09/14 12:52:47;;;;;;;3.30;1.83;;;21.00;80.60;;;;;;10492562;28;20931;-68
2023/09/14 12:57:49;;;;;;;5.17;1.90;;;21.10;81.40;;;;;;10489043;28;20442;-66
2023/09/14 13:02:52;;;;;;;5.00;1.80;;;21.00;80.50;;;;;;10493874;28;20390;-67
2023/09/14 13:07:55;;;;;;;4.10;1.80;;;21.10;80.00;;;;;;10481197;28;20438;-67
2023/09/14 13:13:01;;;;;;;3.97;2.00;;;21.10;80.90;;;;;;10493094;28;20408;-67
2023/09/14 13:18:15;;;;;;;3.25;1.75;;;21.10;80.80;;;;;;10488222;28;20414;-68
2023/09/14 13:23:17;;;;;;;3.58;1.80;;;21.10;80.60;;;;;;10491031;28;20771;-67
2023/09/14 13:28:17;;;;;;;3.45;2.13;;;21.20;81.80;;;;;;10497384;28;20505;-68
2023/09/14 13:33:19;;;;;;;5.07;1.95;;;21.20;81.30;;;;;;10488797;28;20716;-68
2023/09/14 13:38:20;;;;;;;4.65;2.10;;;21.30;82.00;;;;;;10490898;28;20405;-67
2023/09/14 13:43:20;;;;;;;4.65;2.08;;;21.40;81.90;;;;;;10488602;28;20416;-68
2023/09/14 13:48:24;;;;;;;4.22;1.95;;;21.50;81.70;;;;;;10495343;28;20397;-67
2023/09/14 13:53:25;;;;;;;4.65;2.20;;;21.70;81.90;;;;;;10491247;28;20786;-68
2023/09/14 13:58:26;;;;;;;4.20;2.10;;;21.60;81.40;;;;;;10491975;28;20410;-68
2023/09/14 14:03:27;;;;;;;3.53;2.10;;;21.70;81.20;;;;;;10490896;28;20407;-69
2023/09/14 14:08:31;;;;;;;4.32;2.20;;;21.80;80.80;;;;;;10476782;28;20400;-68
2023/09/14 14:13:31;;;;;;;4.53;1.95;;;21.90;80.20;;;;;;10491251;28;20411;-67
2023/09/14 14:18:32;;;;;;;5.80;2.60;;;21.10;78.80;;;;;;10492114;28;20488;-67
2023/09/14 14:23:33;;;;;;;5.70;2.20;;;22.00;79.10;;;;;;10496827;28;20797;-67
2023/09/14 14:28:35;;;;;;;4.03;2.25;;;22.10;78.60;;;;;;10502002;28;20856;-69
2023/09/14 14:33:35;;;;;;;5.27;2.40;;;22.20;78.90;;;;;;10498205;28;20513;-68
2023/09/14 14:38:36;;;;;;;5.47;2.50;;;23.10;78.70;;;;;;10509611;28;20411;-69
2023/09/14 14:43:36;;;;;;;4.80;2.50;;;22.40;78.40;;;;;;10500148;28;20670;-67
2023/09/14 14:48:41;;;;;;;5.40;2.53;;;22.50;78.60;;;;;;10505208;28;20406;-69
2023/09/14 14:53:44;;;;;;;7.10;3.22;;;22.60;78.60;;;;;;10501841;28;20426;-68
2023/09/14 14:58:44;;;;;;;5.72;3.10;;;22.70;78.60;;;;;;10508880;28;20492;-68
2023/09/14 15:03:45;;;;;;;5.03;2.90;;;22.80;78.90;;;;;;10503924;28;20419;-70
2023/09/14 15:08:46;;;;;;;5.93;2.93;;;22.80;78.50;;;;;;10496529;28;20994;-70
2023/09/14 15:13:47;;;;;;;7.50;3.23;;;22.90;77.80;;;;;;10502450;28;20413;-70
2023/09/14 15:18:47;;;;;;;5.47;3.30;;;22.90;77.20;;;;;;10501788;28;20413;-69
2023/09/14 15:23:49;;;;;;;7.60;3.47;;;22.80;78.30;;;;;;10501672;28;20431;-68
2023/09/14 15:28:49;;;;;;;5.57;3.03;;;22.80;78.30;;;;;;10501756;28;20765;-68
2023/09/14 15:33:50;;;;;;;6.97;3.78;;;22.70;78.00;;;;;;10507146;28;20406;-67
2023/09/14 15:38:51;;;;;;;6.25;3.35;;;22.70;78.10;;;;;;10500393;28;20456;-68
2023/09/14 15:43:53;;;;;;;5.70;3.37;;;22.70;78.20;;;;;;10497590;28;20544;-69
2023/09/14 15:48:54;;;;;;;5.87;3.60;;;22.70;78.40;;;;;;10505753;28;20408;-69
2023/09/14 15:53:56;;;;;;;6.20;3.47;;;22.70;78.30;;;;;;10507166;28;20416;-70
2023/09/14 15:58:57;;;;;;;6.10;3.47;;;22.70;78.80;;;;;;10504107;28;20501;-69
2023/09/14 16:03:57;;;;;;;6.63;3.78;;;22.60;78.50;;;;;;10496546;28;20401;-69
2023/09/14 16:08:58;;;;;;;6.35;3.75;;;22.90;78.90;;;;;;10493824;28;20779;-67
2023/09/14 16:13:59;;;;;;;7.50;3.30;;;22.50;79.00;;;;;;10494250;28;20409;-69
2023/09/14 16:18:59;;;;;;;6.17;3.70;;;22.50;78.80;;;;;;10498786;28;20414;-69
2023/09/14 16:24:01;;;;;;;5.87;3.90;;;22.50;78.90;;;;;;10497228;28;20488;-68
2023/09/14 16:29:03;;;;;;;5.05;3.85;;;22.40;79.00;;;;;;10503841;28;20406;-66
2023/09/14 16:34:04;;;;;;;6.73;4.13;;;22.40;80.10;;;;;;10507447;28;20394;-68
2023/09/14 16:39:09;;;;;;;7.40;4.13;;;22.40;79.90;;;;;;10501214;28;20403;-67
2023/09/14 16:44:10;;;;;;;7.57;4.20;;;22.30;80.60;;;;;;10511222;28;20395;-67
2023/09/14 16:49:23;;;;;;;9.52;4.25;;;22.30;81.00;;;;;;10512719;28;20457;-67
2023/09/14 16:54:28;;;;;;;11.23;4.53;;;22.30;80.80;;;;;;10491936;28;20405;-67
2023/09/14 16:59:28;;;;;;;6.17;4.10;;;22.30;80.70;;;;;;10484597;28;20643;-67
2023/09/14 17:04:29;;;;;;;5.93;4.20;;;22.30;80.90;;;;;;10493089;28;20394;-63
2023/09/14 17:09:30;;;;;;;7.63;4.77;;;22.20;81.20;;;;;;10482022;28;20396;-67
2023/09/14 17:14:30;;;;;;;6.10;4.20;;;22.20;81.90;;;;;;10494704;28;20814;-66
2023/09/14 17:19:31;;;;;;;7.63;4.83;;;22.10;81.90;;;;;;10487417;28;20839;-67
2023/09/14 17:24:32;;;;;;;7.40;4.35;;;22.10;82.10;;;;;;10487373;28;20902;-67
2023/09/14 17:29:33;;;;;;;6.50;4.30;;;22.10;82.20;;;;;;10495028;28;20493;-67
2023/09/14 17:34:34;;;;;;;6.88;4.40;;;22.10;82.40;;;;;;10493631;28;20810;-66
2023/09/14 17:39:34;;;;;;;6.60;4.40;;;22.10;82.60;;;;;;10498446;28;20394;-67
2023/09/14 17:44:35;;;;;;;7.70;4.83;;;22.10;82.70;;;;;;10485470;28;20482;-67
2023/09/14 17:49:36;;;;;;;6.28;4.63;;;22.00;82.80;;;;;;10494858;28;20430;-67
2023/09/14 17:54:37;;;;;;;6.63;4.90;;;22.10;83.00;;;;;;10491655;28;20611;-67
2023/09/14 17:59:37;;;;;;;7.10;4.70;;;22.00;83.10;;;;;;10494150;28;20404;-65
2023/09/14 18:04:41;;;;;;;8.00;4.83;;;21.90;83.10;;;;;;10478649;28;20414;-68
2023/09/14 18:09:42;;;;;;;6.50;4.35;;;21.90;83.10;;;;;;10491881;28;20404;-66
2023/09/14 18:14:42;;;;;;;7.07;5.90;;;22.00;83.20;;;;;;10487701;28;20891;-67
2023/09/14 18:19:43;;;;;;;7.83;5.23;;;21.80;83.40;;;;;;10490304;28;20414;-68
2023/09/14 18:24:48;;;;;;;7.03;4.90;;;21.80;83.50;;;;;;10486364;28;20391;-69
2023/09/14 18:29:49;;;;;;;7.55;5.30;;;21.70;83.40;;;;;;10483848;28;20444;-69
2023/09/14 18:34:49;;;;;;;7.23;4.87;;;21.70;83.60;;;;;;10480449;28;20984;-68
2023/09/14 18:39:50;;;;;;;7.20;4.97;;;21.70;83.50;;;;;;10478466;28;20410;-68
2023/09/14 18:44:51;;;;;;;6.67;4.80;;;21.60;83.50;;;;;;10488956;28;20412;-68
2023/09/14 18:49:52;;;;;;;7.87;4.90;;;21.60;83.50;;;;;;10481812;28;20401;-68
2023/09/14 18:54:52;;;;;;;6.15;4.75;;;21.60;83.40;;;;;;10494583;28;20416;-68
2023/09/14 18:59:54;;;;;;;7.50;5.13;;;21.60;83.30;;;;;;10478143;28;20415;-68
2023/09/14 19:04:55;;;;;;;6.57;4.75;;;21.60;83.30;;;;;;10490941;28;20402;-68
2023/09/14 19:09:55;;;;;;;5.90;4.40;;;21.50;83.20;;;;;;10494183;28;20640;-69
2023/09/14 19:14:57;;;;;;;5.95;4.50;;;21.50;83.20;;;;;;10491415;28;20409;-68
2023/09/14 19:19:58;;;;;;;6.68;4.50;;;21.50;83.20;;;;;;10491540;28;20420;-68
2023/09/14 19:24:58;;;;;;;5.57;4.15;;;21.50;83.30;;;;;;10494620;28;20446;-67
2023/09/14 19:29:59;;;;;;;8.43;4.60;;;21.40;83.10;;;;;;10495417;28;20656;-68
2023/09/14 19:35:00;;;;;;;7.40;4.53;;;21.40;83.10;;;;;;10490719;28;20782;-66
2023/09/14 19:40:02;;;;;;;5.80;4.43;;;21.40;83.00;;;;;;10491423;28;20410;-66
2023/09/14 19:45:03;;;;;;;6.13;4.33;;;21.30;83.00;;;;;;10497274;28;20396;-67
2023/09/14 19:50:07;;;;;;;7.22;4.50;;;21.30;83.00;;;;;;10491826;28;20394;-68
2023/09/14 19:55:08;;;;;;;8.00;4.70;;;21.30;83.00;;;;;;10496716;28;20404;-67
2023/09/14 20:00:14;;;;;;;7.30;4.57;;;21.30;83.00;;;;;;10488354;28;20590;-68
2023/09/14 20:05:15;;;;;;;7.55;5.20;;;21.20;82.90;;;;;;10486842;28;20475;-68
2023/09/14 20:10:15;;;;;;;6.60;5.03;;;21.20;83.00;;;;;;10490993;28;20773;-69
2023/09/14 20:15:16;;;;;;;7.47;4.90;;;21.10;83.00;;;;;;10488550;28;20392;-69
2023/09/14 20:20:19;;;;;;;6.07;4.33;;;21.10;83.30;;;;;;10487245;28;20453;-67
2023/09/14 20:25:20;;;;;;;6.67;4.80;;;21.00;83.10;;;;;;10493519;28;20442;-70
2023/09/14 20:30:20;;;;;;;7.07;4.30;;;21.00;83.00;;;;;;10490315;28;20843;-70
2023/09/14 20:35:21;;;;;;;5.97;4.60;;;21.00;82.90;;;;;;10490415;28;20772;-70
2023/09/14 20:40:26;;;;;;;5.63;4.20;;;21.00;82.90;;;;;;10486213;28;20797;-70
2023/09/14 20:45:28;;;;;;;7.13;4.55;;;21.00;82.90;;;;;;10497077;28;20551;-70
2023/09/14 20:50:28;;;;;;;7.40;4.20;;;21.00;82.80;;;;;;10514161;28;20397;-69
2023/09/14 20:55:29;;;;;;;6.23;4.10;;;20.90;82.80;;;;;;10488512;28;20971;-68
2023/09/14 21:00:33;;;;;;;6.67;4.33;;;20.90;82.70;;;;;;10486451;28;20973;-70
2023/09/14 21:05:33;;;;;;;6.18;4.45;;;20.90;82.70;;;;;;10490209;28;20426;-69
2023/09/14 21:10:36;;;;;;;5.87;4.07;;;20.90;82.70;;;;;;10488090;28;20399;-70
2023/09/14 21:15:37;;;;;;;7.13;4.50;;;20.80;82.60;;;;;;10493069;28;20403;-68
2023/09/14 21:20:37;;;;;;;6.27;4.00;;;20.80;82.70;;;;;;10491562;28;20411;-70
2023/09/14 21:25:38;;;;;;;7.20;4.13;;;20.80;82.70;;;;;;10482506;28;20514;-70
2023/09/14 21:30:38;;;;;;;6.43;4.00;;;20.70;82.70;;;;;;10485766;28;20807;-68
2023/09/14 21:35:39;;;;;;;6.70;3.90;;;20.70;82.70;;;;;;10484134;28;20411;-70
2023/09/14 21:40:40;;;;;;;6.57;4.00;;;20.70;82.70;;;;;;10487181;28;20469;-68
2023/09/14 21:45:48;;;;;;;7.30;4.20;;;20.60;82.60;;;;;;10496239;28;20395;-69
2023/09/14 21:50:50;;;;;;;5.65;4.25;;;20.60;82.60;;;;;;10485135;28;20404;-67
2023/09/14 21:55:51;;;;;;;6.30;4.13;;;20.60;82.60;;;;;;10484775;28;20913;-68
2023/09/14 22:00:52;;;;;;;6.43;3.97;;;20.60;82.60;;;;;;10493791;28;20450;-70
2023/09/14 22:05:53;;;;;;;6.05;3.72;;;20.50;82.50;;;;;;10491966;28;20863;-70
2023/09/14 22:11:02;;;;;;;6.20;3.67;;;20.50;82.50;;;;;;10497082;28;20434;-70
2023/09/14 22:16:03;;;;;;;6.22;3.92;;;20.50;83.10;;;;;;10479159;28;20401;-70
2023/09/14 22:21:09;;;;;;;5.40;3.72;;;20.50;82.50;;;;;;10488720;28;20418;-70
2023/09/14 22:26:10;;;;;;;5.40;3.75;;;20.50;82.50;;;;;;10487759;28;20967;-69
2023/09/14 22:31:12;;;;;;;5.80;3.90;;;20.40;82.40;;;;;;10497024;28;20405;-69
2023/09/14 22:36:12;;;;;;;5.35;3.85;;;20.40;82.30;;;;;;10501429;28;20405;-67
2023/09/14 22:41:14;;;;;;;5.43;3.60;;;20.40;82.40;;;;;;10500984;28;20466;-69
2023/09/14 22:46:16;;;;;;;6.35;3.80;;;20.30;82.30;;;;;;10501080;28;20394;-70
2023/09/14 22:51:17;;;;;;;7.32;4.00;;;20.30;82.30;;;;;;10498912;28;20923;-69
2023/09/14 22:56:19;;;;;;;5.47;3.30;;;20.30;82.30;;;;;;10498336;28;20404;-69
2023/09/14 23:01:24;;;;;;;5.60;3.60;;;20.30;82.30;;;;;;10490843;28;20393;-70
2023/09/14 23:06:24;;;;;;;5.20;3.67;;;20.30;82.30;;;;;;10498179;28;21297;-69
2023/09/14 23:11:36;;;;;;;5.40;3.13;;;20.20;82.20;;;;;;10504247;28;20541;-67
2023/09/14 23:16:44;;;;;;;5.95;3.45;;;20.20;82.30;;;;;;10492563;28;20424;-68
2023/09/14 23:21:47;;;;;;;5.05;3.50;;;20.20;82.20;;;;;;10500418;28;20399;-70
2023/09/14 23:26:48;;;;;;;5.05;3.38;;;20.10;82.20;;;;;;10501118;28;20428;-69
2023/09/14 23:31:50;;;;;;;5.63;3.10;;;20.10;82.20;;;;;;10505222;28;20465;-70
2023/09/14 23:36:50;;;;;;;4.95;3.20;;;20.10;82.20;;;;;;10505921;28;20406;-70
2023/09/14 23:41:51;;;;;;;4.82;3.03;;;20.10;82.20;;;;;;10505888;28;20768;-70
2023/09/14 23:46:51;;;;;;;5.53;3.00;;;20.10;82.20;;;;;;10503105;28;20397;-69
2023/09/14 23:51:52;;;;;;;4.95;3.10;;;20.00;82.20;;;;;;10504234;28;20406;-70
2023/09/14 23:56:53;;;;;;;4.20;3.00;;;20.00;82.20;;;;;;10504909;28;20952;-69
